createdAt,value
2023-04-03T00:00:50.914Z,1.33
2023-04-03T00:03:18.936Z,1.27
2023-04-03T00:05:46.713Z,1.23
2023-04-03T00:08:13.453Z,1.93
2023-04-03T00:10:40.374Z,1.13
2023-04-03T00:13:07.758Z,1.90
2023-04-03T00:15:35.155Z,1.10
2023-04-03T00:18:02.533Z,1.03
2023-04-03T00:20:29.514Z,1.30
2023-04-03T00:22:56.328Z,0.80
2023-04-03T00:25:23.106Z,1.70
2023-04-03T00:27:49.896Z,1.23
2023-04-03T00:30:18.890Z,1.50
2023-04-03T00:32:45.987Z,1.00
2023-04-03T00:35:12.741Z,1.30
2023-04-03T00:37:39.397Z,1.20
2023-04-03T00:40:07.143Z,1.47
2023-04-03T00:42:33.945Z,1.20
2023-04-03T00:45:01.834Z,1.33
2023-04-03T00:47:28.714Z,0.97
2023-04-03T00:49:55.452Z,1.30
2023-04-03T00:52:25.004Z,1.10
2023-04-03T00:54:53.485Z,1.37
2023-04-03T00:57:20.600Z,1.40
2023-04-03T00:59:52.275Z,1.67
2023-04-03T01:02:19.798Z,1.00
2023-04-03T01:04:48.328Z,1.60
2023-04-03T01:07:21.815Z,1.30
2023-04-03T01:09:49.665Z,1.60
2023-04-03T01:12:21.911Z,1.67
2023-04-03T01:14:52.358Z,1.40
2023-04-03T01:17:28.166Z,1.33
2023-04-03T01:20:12.963Z,1.73
2023-04-03T01:22:58.243Z,1.90
2023-04-03T01:25:25.579Z,1.53
2023-04-03T01:27:52.282Z,1.50
2023-04-03T01:30:21.214Z,2.07
2023-04-03T01:32:48.038Z,1.93
2023-04-03T01:35:14.746Z,1.63
2023-04-03T01:37:41.531Z,1.07
2023-04-03T01:40:09.286Z,1.20
2023-04-03T01:42:36.038Z,1.80
2023-04-03T01:45:02.879Z,1.20
2023-04-03T01:47:29.699Z,1.10
2023-04-03T01:49:56.530Z,1.33
2023-04-03T01:52:23.273Z,1.20
2023-04-03T01:54:50.055Z,1.50
2023-04-03T01:57:17.293Z,1.17
2023-04-03T01:59:44.068Z,1.47
2023-04-03T02:02:10.887Z,1.40
2023-04-03T02:04:37.601Z,1.40
2023-04-03T02:07:04.266Z,1.30
2023-04-03T02:09:31.135Z,1.53
2023-04-03T02:11:57.814Z,1.20
2023-04-03T02:14:24.800Z,1.40
2023-04-03T02:16:51.593Z,1.00
2023-04-03T02:19:18.396Z,1.33
2023-04-03T02:21:45.682Z,1.13
2023-04-03T02:24:12.431Z,1.30
2023-04-03T02:26:39.150Z,1.77
2023-04-03T02:29:06.098Z,1.53
2023-04-03T02:31:33.073Z,1.53
2023-04-03T02:33:59.869Z,1.67
2023-04-03T02:36:26.746Z,1.40
2023-04-03T02:38:53.545Z,1.67
2023-04-03T02:41:20.291Z,1.30
2023-04-03T02:43:47.032Z,1.33
2023-04-03T02:46:16.160Z,1.50
2023-04-03T02:48:42.960Z,1.30
2023-04-03T02:51:09.670Z,1.80
2023-04-03T02:53:36.388Z,1.50
2023-04-03T02:56:03.135Z,1.63
2023-04-03T02:58:29.909Z,1.50
2023-04-03T03:00:56.652Z,2.20
2023-04-03T03:03:24.145Z,1.33
2023-04-03T03:05:50.916Z,1.43
2023-04-03T03:08:21.208Z,1.30
2023-04-03T03:10:48.035Z,1.77
2023-04-03T03:13:14.753Z,1.10
2023-04-03T03:15:41.543Z,1.40
2023-04-03T03:18:08.353Z,1.97
2023-04-03T03:20:35.824Z,1.60
2023-04-03T03:23:02.755Z,1.80
2023-04-03T03:25:29.521Z,1.13
2023-04-03T03:27:56.312Z,1.80
2023-04-03T03:30:23.105Z,1.70
2023-04-03T03:32:49.826Z,1.60
2023-04-03T03:35:16.632Z,2.33
2023-04-03T03:37:43.370Z,1.60
2023-04-03T03:40:12.262Z,1.70
2023-04-03T03:42:38.961Z,1.67
2023-04-03T03:45:06.626Z,1.70
2023-04-03T03:47:33.418Z,2.00
2023-04-03T03:50:00.430Z,1.60
2023-04-03T03:52:27.406Z,1.57
2023-04-03T03:54:54.171Z,1.60
2023-04-03T03:57:21.709Z,1.50
2023-04-03T03:59:49.767Z,2.03
2023-04-03T04:02:17.411Z,1.60
2023-04-03T04:04:44.225Z,1.80
2023-04-03T04:07:11.014Z,1.40
2023-04-03T04:09:37.803Z,1.90
2023-04-03T04:12:04.916Z,1.37
2023-04-03T04:14:31.697Z,1.47
2023-04-03T04:16:58.590Z,1.30
2023-04-03T04:19:25.436Z,1.53
2023-04-03T04:21:52.199Z,1.23
2023-04-03T04:24:18.929Z,1.50
2023-04-03T04:26:45.617Z,1.47
2023-04-03T04:29:12.373Z,1.40
2023-04-03T04:31:38.965Z,1.90
2023-04-03T04:34:05.613Z,1.70
2023-04-03T04:36:32.316Z,1.80
2023-04-03T04:38:59.626Z,1.30
2023-04-03T04:41:26.316Z,1.30
2023-04-03T04:43:53.366Z,1.80
2023-04-03T04:46:20.071Z,2.07
2023-04-03T04:48:47.005Z,1.40
2023-04-03T04:51:13.719Z,2.00
2023-04-03T04:53:40.496Z,1.70
2023-04-03T04:56:07.511Z,1.07
2023-04-03T04:58:34.179Z,1.63
2023-04-03T05:01:01.974Z,1.60
2023-04-03T05:03:28.721Z,1.83
2023-04-03T05:05:55.669Z,2.10
2023-04-03T05:08:22.683Z,5.07
2023-04-03T05:10:49.360Z,4.30
2023-04-03T05:13:16.486Z,4.60
2023-04-03T05:15:43.280Z,6.10
2023-04-03T05:18:10.056Z,4.20
2023-04-03T05:20:37.718Z,3.17
2023-04-03T05:23:04.768Z,2.40
2023-04-03T05:25:31.659Z,2.07
2023-04-03T05:27:58.422Z,1.80
2023-04-03T05:30:25.670Z,1.80
2023-04-03T05:32:52.520Z,1.50
2023-04-03T05:35:19.268Z,2.27
2023-04-03T05:37:46.348Z,2.00
2023-04-03T05:40:13.318Z,1.83
2023-04-03T05:42:40.085Z,1.80
2023-04-03T05:45:07.361Z,1.83
2023-04-03T05:47:34.182Z,1.70
2023-04-03T05:50:00.878Z,1.47
2023-04-03T05:52:30.254Z,2.47
2023-04-03T05:54:57.306Z,2.50
2023-04-03T05:57:24.609Z,1.50
2023-04-03T05:59:51.606Z,1.70
2023-04-03T06:02:21.814Z,1.60
2023-04-03T06:04:49.250Z,1.30
2023-04-03T06:07:18.844Z,1.03
2023-04-03T06:09:45.562Z,1.60
2023-04-03T06:12:12.518Z,1.57
2023-04-03T06:14:39.269Z,1.23
2023-04-03T06:17:06.103Z,1.30
2023-04-03T06:19:32.996Z,1.40
2023-04-03T06:21:59.733Z,1.80
2023-04-03T06:24:26.579Z,1.30
2023-04-03T06:26:54.168Z,2.00
2023-04-03T06:29:21.572Z,2.07
2023-04-03T06:31:48.946Z,1.50
2023-04-03T06:34:16.971Z,1.50
2023-04-03T06:36:44.292Z,3.10
2023-04-03T06:39:21.461Z,1.73
2023-04-03T06:41:48.089Z,2.20
2023-04-03T06:44:16.847Z,1.83
2023-04-03T06:46:44.308Z,1.70
2023-04-03T06:49:11.464Z,1.60
2023-04-03T06:51:38.346Z,1.30
2023-04-03T06:54:06.863Z,1.63
2023-04-03T06:56:33.968Z,11.77
2023-04-03T06:59:00.985Z,5.80
2023-04-03T07:01:29.528Z,1.90
2023-04-03T07:03:56.510Z,3.27
2023-04-03T07:06:23.773Z,4.60
2023-04-03T07:08:50.552Z,2.17
2023-04-03T07:11:18.064Z,2.23
2023-04-03T07:13:44.819Z,2.73
2023-04-03T07:16:12.116Z,2.70
2023-04-03T07:18:39.021Z,3.87
2023-04-03T07:21:06.157Z,3.00
2023-04-03T07:23:33.017Z,2.73
2023-04-03T07:26:00.126Z,2.60
2023-04-03T07:28:27.132Z,2.73
2023-04-03T07:31:02.112Z,2.83
2023-04-03T07:33:29.044Z,3.67
2023-04-03T07:35:56.239Z,2.73
2023-04-03T07:38:23.144Z,3.03
2023-04-03T07:40:51.651Z,5.03
2023-04-03T07:43:19.700Z,2.70
2023-04-03T07:45:46.463Z,3.93
2023-04-03T07:48:14.012Z,2.97
2023-04-03T07:50:43.809Z,3.90
2023-04-03T07:53:10.702Z,3.90
2023-04-03T07:55:43.836Z,2.57
2023-04-03T07:58:16.116Z,2.80
2023-04-03T08:00:43.254Z,2.67
2023-04-03T08:03:12.905Z,2.40
2023-04-03T08:05:41.900Z,2.70
2023-04-03T08:08:09.634Z,3.10
2023-04-03T08:10:36.512Z,2.27
2023-04-03T08:13:03.445Z,3.00
2023-04-03T08:15:31.796Z,3.33
2023-04-03T08:17:59.717Z,5.30
2023-04-03T08:20:26.843Z,2.60
2023-04-03T08:22:53.939Z,3.20
2023-04-03T08:25:20.989Z,4.30
2023-04-03T08:27:47.792Z,2.87
2023-04-03T08:30:15.224Z,2.90
2023-04-03T08:32:44.195Z,3.07
2023-04-03T08:35:11.742Z,1.73
2023-04-03T08:37:39.179Z,1.60
2023-04-03T08:40:08.053Z,1.57
2023-04-03T08:42:43.555Z,1.87
2023-04-03T08:45:39.414Z,1.30
2023-04-03T08:48:11.090Z,2.20
2023-04-03T08:50:41.863Z,2.20
2023-04-03T08:53:35.357Z,2.13
2023-04-03T08:56:09.197Z,2.10
2023-04-03T08:59:06.429Z,2.50
2023-04-03T09:01:41.149Z,1.87
2023-04-03T09:04:14.282Z,1.83
2023-04-03T09:06:44.454Z,2.43
2023-04-03T09:09:11.853Z,1.87
2023-04-03T09:11:46.715Z,2.40
2023-04-03T09:14:41.739Z,2.50
2023-04-03T09:17:31.783Z,1.73
2023-04-03T09:20:09.773Z,2.43
2023-04-03T09:22:45.613Z,2.50
2023-04-03T09:25:22.596Z,2.20
2023-04-03T09:27:49.626Z,2.30
2023-04-03T09:30:21.404Z,3.00
2023-04-03T09:32:50.719Z,3.03
2023-04-03T09:35:36.269Z,4.07
2023-04-03T09:38:11.266Z,4.10
2023-04-03T09:40:46.818Z,2.90
2023-04-03T09:43:29.651Z,3.33
2023-04-03T09:45:57.706Z,4.97
2023-04-03T09:48:26.658Z,1.80
2023-04-03T09:51:00.536Z,3.90
2023-04-03T09:53:38.443Z,2.70
2023-04-03T09:56:17.424Z,1.67
2023-04-03T09:58:50.848Z,2.87
2023-04-03T10:01:27.795Z,3.57
2023-04-03T10:04:23.841Z,5.20
2023-04-03T10:06:53.280Z,3.53
2023-04-03T10:09:31.163Z,2.50
2023-04-03T10:12:10.982Z,4.67
2023-04-03T10:14:58.483Z,3.03
2023-04-03T10:17:37.394Z,3.47
2023-04-03T10:20:46.167Z,7.00
2023-04-03T10:23:28.536Z,3.73
2023-04-03T10:26:14.005Z,2.40
2023-04-03T10:29:13.779Z,1.40
2023-04-03T10:32:01.507Z,1.47
2023-04-03T10:34:32.652Z,1.47
2023-04-03T10:37:14.653Z,2.63
2023-04-03T10:40:03.256Z,2.27
2023-04-03T10:42:42.150Z,1.50
2023-04-03T10:45:29.589Z,1.40
2023-04-03T10:48:10.461Z,1.70
2023-04-03T10:51:02.054Z,1.30
2023-04-03T10:53:40.227Z,1.73
2023-04-03T10:56:43.453Z,1.47
2023-04-03T10:59:37.824Z,1.30
2023-04-03T11:02:09.853Z,1.40
2023-04-03T11:04:39.153Z,1.30
2023-04-03T11:07:13.852Z,1.50
2023-04-03T11:09:45.715Z,2.30
2023-04-03T11:12:18.531Z,1.27
2023-04-03T11:14:48.346Z,1.20
2023-04-03T11:17:23.958Z,0.90
2023-04-03T11:20:15.929Z,1.90
2023-04-03T11:22:46.379Z,1.00
2023-04-03T11:25:13.084Z,0.90
2023-04-03T11:27:58.764Z,0.83
2023-04-03T11:30:35.784Z,1.13
2023-04-03T11:33:24.575Z,1.07
2023-04-03T11:35:54.322Z,0.90
2023-04-03T11:38:30.657Z,1.00
2023-04-03T11:40:58.865Z,1.00
2023-04-03T11:43:29.778Z,1.00
2023-04-03T11:46:05.954Z,1.30
2023-04-03T11:48:33.238Z,0.90
2023-04-03T11:51:03.653Z,0.73
2023-04-03T11:53:36.022Z,1.37
2023-04-03T11:56:22.256Z,1.23
2023-04-03T11:59:24.494Z,0.70
2023-04-03T12:01:59.416Z,1.00
2023-04-03T12:04:28.783Z,0.87
2023-04-03T12:07:31.532Z,0.60
2023-04-03T12:09:59.716Z,1.23
2023-04-03T12:12:31.771Z,1.13
2023-04-03T12:15:18.700Z,0.70
2023-04-03T12:17:45.573Z,1.00
2023-04-03T12:20:49.603Z,1.10
2023-04-03T12:23:33.926Z,0.60
2023-04-03T12:26:22.937Z,0.97
2023-04-03T12:28:51.042Z,1.10
2023-04-03T12:31:18.215Z,0.90
2023-04-03T12:34:11.342Z,1.57
2023-04-03T12:36:52.575Z,1.50
2023-04-03T12:39:42.528Z,0.90
2023-04-03T12:42:33.828Z,0.80
2023-04-03T12:45:22.586Z,1.07
2023-04-03T12:47:51.424Z,1.10
2023-04-03T12:50:25.053Z,0.70
2023-04-03T12:53:07.754Z,0.90
2023-04-03T12:55:34.721Z,1.10
2023-04-03T12:58:23.681Z,1.40
2023-04-03T13:01:12.647Z,1.00
2023-04-03T13:03:41.359Z,1.13
2023-04-03T13:06:08.253Z,1.00
2023-04-03T13:08:34.978Z,1.20
2023-04-03T13:11:11.510Z,0.90
2023-04-03T13:13:40.149Z,1.07
2023-04-03T13:16:12.701Z,1.23
2023-04-03T13:18:39.626Z,1.00
2023-04-03T13:21:11.559Z,1.00
2023-04-03T13:23:41.004Z,1.00
2023-04-03T13:26:08.283Z,1.03
2023-04-03T13:28:35.513Z,1.10
2023-04-03T13:31:25.592Z,1.13
2023-04-03T13:34:07.411Z,0.90
2023-04-03T13:36:42.541Z,1.30
2023-04-03T13:39:31.851Z,1.27
2023-04-03T13:42:02.863Z,1.10
2023-04-03T13:44:36.407Z,1.70
2023-04-03T13:47:17.015Z,1.10
2023-04-03T13:49:46.819Z,1.13
2023-04-03T13:52:27.240Z,1.53
2023-04-03T13:55:03.091Z,1.10
2023-04-03T13:57:32.706Z,1.60
2023-04-03T13:59:59.538Z,1.70
2023-04-03T14:02:34.683Z,1.60
2023-04-03T14:05:04.442Z,2.73
2023-04-03T14:07:32.313Z,1.50
2023-04-03T14:09:59.278Z,2.60
2023-04-03T14:12:33.014Z,2.50
2023-04-03T14:15:02.429Z,1.90
2023-04-03T14:17:29.558Z,2.77
2023-04-03T14:19:58.928Z,2.00
2023-04-03T14:22:29.528Z,2.20
2023-04-03T14:24:57.206Z,1.70
2023-04-03T14:27:36.308Z,1.90
2023-04-03T14:30:05.197Z,2.00
2023-04-03T14:32:32.374Z,1.77
2023-04-03T14:34:59.780Z,2.60
2023-04-03T14:37:30.256Z,2.07
2023-04-03T14:40:00.238Z,2.23
2023-04-03T14:42:31.065Z,2.10
2023-04-03T14:44:59.079Z,2.60
2023-04-03T14:47:31.891Z,1.73
2023-04-03T14:50:01.521Z,3.20
2023-04-03T14:52:33.094Z,2.03
2023-04-03T14:55:01.575Z,2.27
2023-04-03T14:57:29.996Z,2.10
2023-04-03T14:59:57.161Z,2.50
2023-04-03T15:02:36.971Z,2.37
2023-04-03T15:05:07.233Z,2.17
2023-04-03T15:07:36.950Z,2.10
2023-04-03T15:10:19.006Z,2.20
2023-04-03T15:12:46.960Z,2.30
2023-04-03T15:15:15.429Z,3.00
2023-04-03T15:17:43.007Z,3.03
2023-04-03T15:20:21.614Z,2.93
2023-04-03T15:22:48.796Z,3.83
2023-04-03T15:25:15.907Z,2.93
2023-04-03T15:27:43.139Z,2.10
2023-04-03T15:30:16.080Z,3.40
2023-04-03T15:32:42.916Z,3.90
2023-04-03T15:35:10.023Z,2.77
2023-04-03T15:37:36.756Z,2.83
2023-04-03T15:40:05.285Z,3.30
2023-04-03T15:42:31.999Z,3.00
2023-04-03T15:44:58.734Z,2.80
2023-04-03T15:47:26.877Z,3.57
2023-04-03T15:49:54.832Z,3.03
2023-04-03T15:52:21.545Z,8.10
2023-04-03T15:54:48.222Z,3.37
2023-04-03T15:57:14.977Z,3.13
2023-04-03T15:59:41.764Z,9.20
2023-04-03T16:02:09.476Z,5.73
2023-04-03T16:04:36.460Z,3.40
2023-04-03T16:07:04.439Z,3.63
2023-04-03T16:09:32.709Z,2.40
2023-04-03T16:11:59.594Z,2.20
2023-04-03T16:14:26.244Z,2.63
2023-04-03T16:16:53.000Z,3.10
2023-04-03T16:19:19.865Z,3.07
2023-04-03T16:21:47.722Z,3.13
2023-04-03T16:24:16.196Z,2.53
2023-04-03T16:26:45.367Z,2.80
2023-04-03T16:29:12.038Z,2.63
2023-04-03T16:31:38.875Z,2.60
2023-04-03T16:34:05.552Z,2.93
2023-04-03T16:36:32.393Z,4.67
2023-04-03T16:38:59.152Z,4.87
2023-04-03T16:41:25.885Z,4.30
2023-04-03T16:43:52.690Z,3.50
2023-04-03T16:46:19.480Z,2.90
2023-04-03T16:48:46.235Z,2.77
2023-04-03T16:51:14.233Z,4.20
2023-04-03T16:53:41.174Z,3.13
2023-04-03T16:56:07.901Z,3.60
2023-04-03T16:58:34.705Z,4.97
2023-04-03T17:01:16.632Z,3.87
2023-04-03T17:03:43.524Z,3.83
2023-04-03T17:06:17.351Z,4.27
2023-04-03T17:08:46.116Z,3.60
2023-04-03T17:11:13.088Z,3.20
2023-04-03T17:13:39.830Z,4.13
2023-04-03T17:16:10.219Z,3.57
2023-04-03T17:18:37.071Z,2.87
2023-04-03T17:21:04.776Z,4.97
2023-04-03T17:23:31.642Z,2.60
2023-04-03T17:25:58.334Z,3.33
2023-04-03T17:28:28.790Z,5.97
2023-04-03T17:30:59.763Z,6.63
2023-04-03T17:33:28.548Z,6.00
2023-04-03T17:35:59.358Z,5.93
2023-04-03T17:38:27.240Z,4.63
2023-04-03T17:40:58.071Z,4.93
2023-04-03T17:43:25.609Z,3.70
2023-04-03T17:45:52.387Z,4.03
2023-04-03T17:48:19.577Z,3.70
2023-04-03T17:50:46.754Z,3.07
2023-04-03T17:53:15.250Z,3.77
2023-04-03T17:55:41.924Z,4.93
2023-04-03T17:58:08.616Z,4.53
2023-04-03T18:00:37.399Z,3.57
2023-04-03T18:03:04.547Z,3.77
2023-04-03T18:05:31.738Z,3.70
2023-04-03T18:07:58.950Z,3.13
2023-04-03T18:10:25.695Z,2.83
2023-04-03T18:12:53.244Z,2.67
2023-04-03T18:15:20.117Z,2.53
2023-04-03T18:17:47.302Z,2.83
2023-04-03T18:20:15.282Z,3.00
2023-04-03T18:22:42.446Z,2.77
2023-04-03T18:25:11.617Z,4.60
2023-04-03T18:27:38.309Z,6.17
2023-04-03T18:30:13.351Z,4.10
2023-04-03T18:32:41.318Z,3.80
2023-04-03T18:35:09.361Z,4.40
2023-04-03T18:37:36.796Z,3.40
2023-04-03T18:40:03.515Z,4.10
2023-04-03T18:42:30.329Z,4.03
2023-04-03T18:44:59.286Z,4.30
2023-04-03T18:47:27.933Z,3.50
2023-04-03T18:49:54.720Z,4.23
2023-04-03T18:52:21.461Z,4.43
2023-04-03T18:54:48.134Z,3.80
2023-04-03T18:57:14.788Z,3.03
2023-04-03T18:59:41.620Z,3.73
2023-04-03T19:02:09.060Z,3.63
2023-04-03T19:04:36.409Z,3.77
2023-04-03T19:07:05.565Z,4.07
2023-04-03T19:09:33.375Z,3.67
2023-04-03T19:12:01.712Z,4.00
2023-04-03T19:14:28.361Z,3.70
2023-04-03T19:16:55.114Z,3.40
2023-04-03T19:19:21.945Z,3.13
2023-04-03T19:21:48.621Z,3.10
2023-04-03T19:24:15.435Z,3.10
2023-04-03T19:26:42.957Z,3.23
2023-04-03T19:29:10.392Z,4.57
2023-04-03T19:31:38.019Z,3.67
2023-04-03T19:34:05.716Z,3.37
2023-04-03T19:36:33.930Z,3.57
2023-04-03T19:39:00.830Z,3.77
2023-04-03T19:41:28.953Z,3.80
2023-04-03T19:43:56.481Z,4.00
2023-04-03T19:46:25.036Z,3.40
2023-04-03T19:48:52.308Z,4.30
2023-04-03T19:51:19.144Z,5.57
2023-04-03T19:53:47.437Z,5.27
2023-04-03T19:56:16.651Z,7.47
2023-04-03T19:58:43.500Z,8.53
2023-04-03T20:01:10.684Z,7.00
2023-04-03T20:03:37.359Z,5.70
2023-04-03T20:06:05.036Z,12.67
2023-04-03T20:08:32.306Z,9.37
2023-04-03T20:10:58.980Z,8.13
2023-04-03T20:13:25.646Z,2.77
2023-04-03T20:15:53.461Z,2.00
2023-04-03T20:18:21.305Z,1.80
2023-04-03T20:20:56.009Z,3.00
2023-04-03T20:23:23.442Z,2.97
2023-04-03T20:26:02.090Z,3.80
2023-04-03T20:28:36.410Z,3.53
2023-04-03T20:31:03.856Z,3.20
2023-04-03T20:33:30.802Z,3.33
2023-04-03T20:35:58.404Z,2.73
2023-04-03T20:38:25.412Z,3.20
2023-04-03T20:40:52.525Z,3.70
2023-04-03T20:43:19.650Z,2.77
2023-04-03T20:45:48.090Z,3.03
2023-04-03T20:48:15.307Z,2.33
2023-04-03T20:50:42.386Z,1.90
2023-04-03T20:53:09.582Z,2.30
2023-04-03T20:55:36.380Z,2.33
2023-04-03T20:58:03.651Z,2.50
2023-04-03T21:00:32.376Z,2.80
2023-04-03T21:03:01.488Z,2.80
2023-04-03T21:05:30.375Z,2.10
2023-04-03T21:08:35.052Z,1.80
2023-04-03T21:11:39.484Z,2.47
2023-04-03T21:14:43.708Z,2.03
2023-04-03T21:17:10.414Z,0.93
2023-04-03T21:19:43.266Z,3.27
2023-04-03T21:22:10.366Z,2.10
2023-04-03T21:24:37.803Z,2.33
2023-04-03T21:27:04.962Z,2.47
2023-04-03T21:29:31.598Z,2.33
2023-04-03T21:31:59.808Z,2.43
2023-04-03T21:34:28.619Z,2.57
2023-04-03T21:36:57.520Z,2.33
2023-04-03T21:39:24.296Z,1.63
2023-04-03T21:41:54.009Z,1.23
2023-04-03T21:44:21.025Z,2.00
2023-04-03T21:46:48.306Z,1.83
2023-04-03T21:49:15.255Z,1.90
2023-04-03T21:51:42.036Z,2.20
2023-04-03T21:54:08.617Z,1.63
2023-04-03T21:56:35.234Z,2.27
2023-04-03T21:59:03.010Z,2.83
2023-04-03T22:01:30.126Z,3.70
2023-04-03T22:04:01.877Z,5.27
2023-04-03T22:06:28.804Z,2.77
2023-04-03T22:08:57.218Z,2.53
2023-04-03T22:11:27.659Z,2.47
2023-04-03T22:13:55.609Z,1.30
2023-04-03T22:16:23.641Z,2.00
2023-04-03T22:18:54.771Z,2.30
2023-04-03T22:21:22.467Z,1.40
2023-04-03T22:23:49.349Z,1.43
2023-04-03T22:26:16.554Z,3.17
2023-04-03T22:28:47.309Z,2.20
2023-04-03T22:31:15.047Z,2.00
2023-04-03T22:33:43.081Z,2.67
2023-04-03T22:36:11.141Z,2.50
2023-04-03T22:38:39.043Z,2.00
2023-04-03T22:41:07.521Z,1.93
2023-04-03T22:43:36.523Z,2.10
2023-04-03T22:46:05.172Z,5.60
2023-04-03T22:48:32.104Z,7.60
2023-04-03T22:51:00.110Z,3.50
2023-04-03T22:53:27.469Z,3.07
2023-04-03T22:55:58.453Z,1.97
2023-04-03T22:58:26.554Z,2.50
2023-04-03T23:01:07.672Z,3.77
2023-04-03T23:03:39.593Z,2.73
2023-04-03T23:06:07.861Z,5.10
2023-04-03T23:08:38.049Z,2.80
2023-04-03T23:11:07.114Z,2.83
2023-04-03T23:13:33.932Z,2.90
2023-04-03T23:16:01.550Z,2.23
2023-04-03T23:18:29.869Z,2.97
2023-04-03T23:20:57.216Z,2.40
2023-04-03T23:23:25.304Z,3.07
2023-04-03T23:26:02.084Z,3.00
2023-04-03T23:28:29.548Z,3.00
2023-04-03T23:31:06.280Z,3.60
2023-04-03T23:33:33.426Z,2.30
2023-04-03T23:36:01.380Z,2.60
2023-04-03T23:38:28.490Z,2.20
2023-04-03T23:40:55.216Z,2.20
2023-04-03T23:43:22.007Z,2.17
2023-04-03T23:45:48.757Z,2.20
2023-04-03T23:48:15.676Z,1.80
2023-04-03T23:50:43.798Z,2.50
2023-04-03T23:53:13.018Z,1.60
2023-04-03T23:55:39.771Z,1.90
2023-04-03T23:58:06.802Z,2.63
